createdAt,value
2019-02-02T00:00:19.469Z,55.01
2019-02-02T00:00:53.273Z,54.70
2019-02-02T00:01:25.466Z,53.50
2019-02-02T00:01:56.670Z,52.52
2019-02-02T00:02:27.840Z,52.03
2019-02-02T00:02:59.228Z,51.92
2019-02-02T00:03:30.393Z,52.07
2019-02-02T00:04:01.593Z,52.37
2019-02-02T00:04:32.895Z,52.87
2019-02-02T00:05:05.765Z,53.32
2019-02-02T00:05:36.898Z,53.71
2019-02-02T00:06:09.121Z,54.35
2019-02-02T00:06:40.278Z,54.87
2019-02-02T00:07:11.466Z,55.53
2019-02-02T00:07:42.633Z,56.20
2019-02-02T00:08:13.832Z,56.88
2019-02-02T00:08:44.990Z,57.47
2019-02-02T00:09:16.200Z,58.08
2019-02-02T00:09:47.352Z,58.77
2019-02-02T00:10:18.535Z,59.37
2019-02-02T00:10:49.688Z,60.09
2019-02-02T00:11:20.892Z,61.19
2019-02-02T00:11:52.072Z,61.92
2019-02-02T00:12:23.271Z,62.06
2019-02-02T00:12:54.543Z,61.77
2019-02-02T00:13:25.759Z,61.16
2019-02-02T00:13:56.937Z,60.37
2019-02-02T00:14:28.135Z,59.52
2019-02-02T00:14:59.295Z,58.67
2019-02-02T00:15:30.488Z,57.73
2019-02-02T00:16:01.670Z,56.89
2019-02-02T00:16:33.034Z,56.20
2019-02-02T00:17:04.207Z,55.41
2019-02-02T00:17:35.375Z,54.72
2019-02-02T00:18:06.568Z,53.71
2019-02-02T00:18:37.760Z,52.87
2019-02-02T00:19:08.943Z,52.33
2019-02-02T00:19:40.115Z,52.31
2019-02-02T00:20:11.311Z,52.44
2019-02-02T00:20:42.480Z,52.75
2019-02-02T00:21:13.749Z,53.19
2019-02-02T00:21:44.927Z,53.72
2019-02-02T00:22:16.102Z,54.41
2019-02-02T00:22:47.282Z,55.04
2019-02-02T00:23:18.462Z,55.56
2019-02-02T00:23:49.648Z,56.22
2019-02-02T00:24:20.831Z,56.94
2019-02-02T00:24:52.116Z,57.55
2019-02-02T00:25:23.310Z,58.17
2019-02-02T00:25:54.487Z,58.62
2019-02-02T00:26:25.670Z,59.27
2019-02-02T00:26:56.896Z,59.94
2019-02-02T00:27:28.168Z,61.05
2019-02-02T00:27:59.393Z,61.78
2019-02-02T00:28:30.569Z,62.04
2019-02-02T00:29:01.751Z,61.77
2019-02-02T00:29:32.916Z,61.26
2019-02-02T00:30:14.872Z,60.59
2019-02-02T00:30:46.061Z,60.02
2019-02-02T00:31:17.265Z,58.79
2019-02-02T00:31:48.421Z,57.91
2019-02-02T00:32:19.619Z,57.07
2019-02-02T00:32:50.771Z,56.30
2019-02-02T00:33:21.984Z,55.43
2019-02-02T00:33:53.139Z,54.79
2019-02-02T00:34:25.339Z,53.82
2019-02-02T00:34:56.502Z,52.85
2019-02-02T00:35:27.702Z,52.31
2019-02-02T00:35:58.880Z,52.17
2019-02-02T00:36:30.073Z,52.23
2019-02-02T00:37:01.239Z,52.52
2019-02-02T00:37:32.490Z,52.88
2019-02-02T00:38:03.643Z,53.44
2019-02-02T00:38:34.858Z,54.00
2019-02-02T00:39:07.321Z,54.50
2019-02-02T00:39:38.514Z,55.14
2019-02-02T00:40:18.531Z,55.88
2019-02-02T00:40:49.767Z,56.19
2019-02-02T00:41:20.934Z,57.17
2019-02-02T00:41:52.347Z,57.97
2019-02-02T00:42:23.534Z,58.67
2019-02-02T00:42:54.746Z,59.31
2019-02-02T00:43:25.924Z,60.21
2019-02-02T00:43:57.115Z,61.32
2019-02-02T00:44:28.347Z,62.03
2019-02-02T00:44:59.563Z,62.25
2019-02-02T00:45:30.838Z,61.92
2019-02-02T00:46:02.016Z,61.32
2019-02-02T00:46:33.187Z,60.54
2019-02-02T00:47:04.476Z,59.65
2019-02-02T00:47:35.662Z,58.82
2019-02-02T00:48:06.856Z,58.06
2019-02-02T00:48:38.041Z,57.42
2019-02-02T00:49:09.223Z,56.57
2019-02-02T00:49:40.400Z,55.99
2019-02-02T00:50:13.537Z,55.26
2019-02-02T00:50:44.711Z,54.71
2019-02-02T00:51:15.879Z,53.86
2019-02-02T00:51:47.052Z,52.97
2019-02-02T00:52:18.230Z,52.50
2019-02-02T00:52:49.429Z,52.35
2019-02-02T00:53:20.613Z,52.53
2019-02-02T00:53:51.780Z,52.89
2019-02-02T00:54:22.956Z,53.34
2019-02-02T00:54:54.134Z,53.93
2019-02-02T00:55:25.316Z,54.43
2019-02-02T00:55:56.517Z,55.23
2019-02-02T00:56:27.755Z,55.86
2019-02-02T00:56:58.932Z,56.60
2019-02-02T00:57:30.130Z,57.28
2019-02-02T00:58:01.275Z,57.98
2019-02-02T00:58:32.477Z,58.56
2019-02-02T00:59:03.637Z,59.16
2019-02-02T00:59:34.848Z,59.81
2019-02-02T01:00:11.502Z,60.95
2019-02-02T01:00:42.753Z,61.81
2019-02-02T01:01:13.917Z,62.02
2019-02-02T01:01:45.121Z,61.67
2019-02-02T01:02:16.293Z,61.10
2019-02-02T01:02:47.485Z,60.31
2019-02-02T01:03:18.644Z,59.44
2019-02-02T01:03:49.839Z,58.67
2019-02-02T01:04:21.001Z,57.98
2019-02-02T01:04:52.235Z,57.25
2019-02-02T01:05:23.402Z,56.49
2019-02-02T01:05:54.587Z,55.77
2019-02-02T01:06:25.732Z,55.10
2019-02-02T01:06:56.955Z,54.57
2019-02-02T01:07:28.100Z,53.73
2019-02-02T01:07:59.402Z,52.91
2019-02-02T01:08:30.565Z,52.53
2019-02-02T01:09:03.672Z,52.46
2019-02-02T01:09:35.218Z,52.59
2019-02-02T01:10:12.026Z,53.04
2019-02-02T01:10:43.186Z,53.46
2019-02-02T01:11:14.386Z,54.07
2019-02-02T01:11:45.585Z,54.57
2019-02-02T01:12:16.752Z,55.14
2019-02-02T01:12:47.924Z,55.84
2019-02-02T01:13:19.099Z,56.44
2019-02-02T01:13:50.282Z,57.02
2019-02-02T01:14:21.468Z,57.69
2019-02-02T01:14:52.646Z,58.37
2019-02-02T01:15:23.844Z,58.99
2019-02-02T01:15:55.016Z,59.61
2019-02-02T01:16:26.283Z,60.37
2019-02-02T01:16:57.477Z,61.37
2019-02-02T01:17:28.699Z,62.03
2019-02-02T01:18:00.016Z,62.13
2019-02-02T01:18:31.159Z,61.68
2019-02-02T01:19:02.357Z,61.22
2019-02-02T01:19:33.519Z,60.63
2019-02-02T01:20:08.527Z,59.91
2019-02-02T01:20:39.692Z,59.25
2019-02-02T01:21:10.893Z,58.36
2019-02-02T01:21:42.065Z,57.62
2019-02-02T01:22:13.269Z,56.86
2019-02-02T01:22:44.431Z,56.23
2019-02-02T01:23:15.639Z,55.54
2019-02-02T01:23:46.804Z,55.03
2019-02-02T01:24:17.992Z,54.46
2019-02-02T01:24:49.189Z,53.59
2019-02-02T01:25:20.444Z,52.79
2019-02-02T01:25:51.610Z,52.42
2019-02-02T01:26:22.830Z,52.46
2019-02-02T01:26:54.020Z,52.66
2019-02-02T01:27:25.261Z,53.08
2019-02-02T01:28:04.931Z,53.56
2019-02-02T01:28:29.794Z,54.00
2019-02-02T01:29:01.055Z,54.74
2019-02-02T01:29:32.479Z,55.42
2019-02-02T01:30:09.128Z,56.04
2019-02-02T01:30:40.375Z,56.62
2019-02-02T01:31:11.758Z,57.36
2019-02-02T01:31:44.152Z,58.03
2019-02-02T01:32:15.358Z,58.68
2019-02-02T01:32:46.517Z,59.38
2019-02-02T01:33:17.735Z,60.26
2019-02-02T01:33:48.890Z,61.33
2019-02-02T01:34:20.098Z,62.04
2019-02-02T01:34:51.250Z,62.11
2019-02-02T01:35:22.449Z,61.86
2019-02-02T01:35:53.623Z,61.36
2019-02-02T01:36:24.830Z,60.63
2019-02-02T01:36:56.029Z,59.86
2019-02-02T01:37:27.289Z,59.03
2019-02-02T01:37:58.443Z,58.32
2019-02-02T01:38:29.773Z,57.61
2019-02-02T01:39:00.929Z,56.90
2019-02-02T01:39:32.340Z,56.19
2019-02-02T01:40:11.298Z,55.63
2019-02-02T01:40:42.498Z,55.34
2019-02-02T01:41:13.636Z,54.56
2019-02-02T01:41:44.853Z,53.67
2019-02-02T01:42:16.022Z,52.84
2019-02-02T01:42:47.254Z,52.48
2019-02-02T01:43:18.516Z,52.44
2019-02-02T01:43:49.738Z,52.79
2019-02-02T01:44:20.945Z,53.16
2019-02-02T01:44:52.172Z,53.67
2019-02-02T01:45:26.403Z,54.34
2019-02-02T01:45:57.642Z,54.93
2019-02-02T01:46:28.880Z,55.65
2019-02-02T01:47:00.109Z,56.46
2019-02-02T01:47:31.364Z,57.08
2019-02-02T01:48:02.529Z,57.74
2019-02-02T01:48:34.736Z,58.35
2019-02-02T01:49:05.885Z,59.10
2019-02-02T01:49:37.099Z,59.64
2019-02-02T01:50:12.657Z,60.33
2019-02-02T01:50:43.882Z,61.49
2019-02-02T01:51:15.045Z,62.24
2019-02-02T01:51:46.250Z,62.34
2019-02-02T01:52:17.525Z,62.07
2019-02-02T01:52:48.745Z,61.45
2019-02-02T01:53:19.983Z,60.71
2019-02-02T01:53:52.275Z,60.00
2019-02-02T01:54:23.491Z,59.21
2019-02-02T01:54:54.739Z,58.46
2019-02-02T01:55:25.992Z,57.77
2019-02-02T01:55:57.225Z,56.98
2019-02-02T01:56:28.480Z,56.28
2019-02-02T01:57:00.012Z,55.71
2019-02-02T01:57:31.218Z,55.08
2019-02-02T01:58:02.438Z,54.71
2019-02-02T01:58:33.644Z,53.87
2019-02-02T01:59:04.918Z,53.00
2019-02-02T01:59:36.212Z,52.61
2019-02-02T02:00:12.756Z,52.59
2019-02-02T02:00:43.964Z,52.86
2019-02-02T02:01:15.154Z,53.37
2019-02-02T02:01:46.366Z,53.99
2019-02-02T02:02:17.510Z,54.58
2019-02-02T02:02:48.723Z,55.28
2019-02-02T02:03:19.883Z,56.02
2019-02-02T02:03:52.097Z,56.85
2019-02-02T02:04:23.259Z,57.50
2019-02-02T02:04:54.445Z,58.27
2019-02-02T02:05:25.599Z,58.92
2019-02-02T02:05:56.773Z,59.55
2019-02-02T02:06:27.989Z,60.40
2019-02-02T02:06:59.352Z,61.51
2019-02-02T02:07:30.513Z,62.18
2019-02-02T02:08:01.683Z,62.17
2019-02-02T02:08:33.074Z,62.12
2019-02-02T02:09:04.848Z,61.64
2019-02-02T02:09:37.024Z,60.97
2019-02-02T02:10:17.116Z,60.16
2019-02-02T02:10:49.313Z,59.84
2019-02-02T02:11:20.482Z,58.90
2019-02-02T02:11:51.658Z,58.08
2019-02-02T02:12:22.838Z,57.42
2019-02-02T02:12:54.132Z,56.80
2019-02-02T02:13:25.345Z,56.16
2019-02-02T02:13:56.526Z,55.54
2019-02-02T02:14:27.725Z,55.01
2019-02-02T02:14:59.226Z,54.56
2019-02-02T02:15:30.386Z,53.67
2019-02-02T02:16:01.593Z,52.96
2019-02-02T02:16:33.615Z,52.59
2019-02-02T02:17:04.803Z,52.54
2019-02-02T02:17:36.002Z,52.80
2019-02-02T02:18:07.190Z,53.17
2019-02-02T02:18:38.562Z,53.75
2019-02-02T02:19:09.728Z,54.30
2019-02-02T02:19:40.933Z,54.92
2019-02-02T02:20:14.695Z,55.63
2019-02-02T02:20:45.923Z,56.32
2019-02-02T02:21:17.095Z,57.14
2019-02-02T02:21:48.289Z,57.83
2019-02-02T02:22:19.501Z,58.48
2019-02-02T02:22:50.707Z,59.21
2019-02-02T02:23:21.886Z,59.86
2019-02-02T02:23:53.097Z,61.06
2019-02-02T02:24:24.250Z,61.99
2019-02-02T02:24:55.463Z,62.24
2019-02-02T02:25:26.593Z,62.09
2019-02-02T02:25:57.812Z,61.80
2019-02-02T02:26:28.984Z,61.27
2019-02-02T02:27:00.252Z,60.56
2019-02-02T02:27:31.408Z,59.93
2019-02-02T02:28:02.603Z,59.22
2019-02-02T02:28:33.750Z,58.60
2019-02-02T02:29:04.953Z,58.00
2019-02-02T02:29:36.113Z,57.45
2019-02-02T02:30:12.201Z,56.89
2019-02-02T02:30:43.367Z,56.46
2019-02-02T02:31:14.620Z,55.89
2019-02-02T02:31:45.863Z,55.47
2019-02-02T02:32:17.110Z,55.04
2019-02-02T02:32:48.386Z,54.73
2019-02-02T02:33:20.561Z,54.12
2019-02-02T02:33:51.747Z,53.40
2019-02-02T02:34:22.945Z,53.21
2019-02-02T02:34:54.119Z,53.32
2019-02-02T02:35:25.301Z,53.68
2019-02-02T02:35:56.459Z,54.15
2019-02-02T02:36:27.811Z,54.70
2019-02-02T02:36:58.993Z,55.33
2019-02-02T02:37:30.197Z,56.13
2019-02-02T02:38:01.389Z,56.84
2019-02-02T02:38:32.538Z,57.67
2019-02-02T02:39:06.475Z,58.40
2019-02-02T02:39:37.648Z,59.15
2019-02-02T02:40:13.106Z,59.98
2019-02-02T02:40:44.260Z,61.19
2019-02-02T02:41:15.446Z,62.09
2019-02-02T02:41:46.598Z,62.30
2019-02-02T02:42:17.759Z,62.25
2019-02-02T02:42:49.020Z,61.88
2019-02-02T02:43:20.188Z,61.28
2019-02-02T02:43:51.345Z,60.59
2019-02-02T02:44:22.554Z,59.98
2019-02-02T02:44:53.722Z,59.30
2019-02-02T02:45:24.912Z,58.64
2019-02-02T02:45:56.070Z,58.12
2019-02-02T02:46:27.270Z,57.53
2019-02-02T02:46:58.414Z,57.03
2019-02-02T02:47:29.665Z,56.59
2019-02-02T02:48:00.874Z,56.12
2019-02-02T02:48:32.041Z,55.59
2019-02-02T02:49:03.323Z,55.30
2019-02-02T02:49:34.515Z,54.97
2019-02-02T02:50:09.998Z,54.62
2019-02-02T02:50:41.193Z,53.96
2019-02-02T02:51:12.554Z,53.30
2019-02-02T02:51:43.751Z,53.22
2019-02-02T02:52:14.939Z,53.44
2019-02-02T02:52:46.103Z,53.78
2019-02-02T02:53:17.293Z,54.24
2019-02-02T02:53:48.493Z,54.85
2019-02-02T02:54:19.661Z,55.54
2019-02-02T02:54:50.858Z,56.26
2019-02-02T02:55:22.019Z,56.97
2019-02-02T02:55:53.245Z,57.63
2019-02-02T02:56:24.426Z,58.43
2019-02-02T02:56:55.605Z,59.16
2019-02-02T02:57:27.794Z,60.02
2019-02-02T02:57:58.962Z,61.20
2019-02-02T02:58:40.755Z,62.08
2019-02-02T02:59:03.231Z,62.38
2019-02-02T02:59:34.408Z,62.13
2019-02-02T03:00:23.322Z,61.58
2019-02-02T03:00:54.490Z,61.22
2019-02-02T03:01:25.797Z,60.42
2019-02-02T03:01:57.046Z,59.71
2019-02-02T03:02:28.302Z,59.04
2019-02-02T03:02:59.786Z,58.57
2019-02-02T03:03:31.001Z,58.08
2019-02-02T03:04:02.325Z,57.65
2019-02-02T03:04:34.600Z,57.17
2019-02-02T03:05:09.740Z,56.74
2019-02-02T03:05:40.954Z,56.42
2019-02-02T03:06:12.139Z,56.01
2019-02-02T03:06:43.385Z,55.70
2019-02-02T03:07:14.554Z,55.34
2019-02-02T03:07:47.465Z,55.16
2019-02-02T03:08:18.641Z,54.83
2019-02-02T03:08:49.830Z,54.18
2019-02-02T03:09:20.999Z,53.75
2019-02-02T03:09:52.169Z,53.61
2019-02-02T03:10:24.651Z,53.60
2019-02-02T03:10:55.844Z,53.85
2019-02-02T03:11:27.115Z,54.40
2019-02-02T03:11:58.399Z,54.96
2019-02-02T03:12:29.763Z,55.62
2019-02-02T03:13:00.991Z,56.43
2019-02-02T03:13:32.308Z,57.34
2019-02-02T03:14:03.500Z,58.09
2019-02-02T03:14:34.682Z,59.01
2019-02-02T03:15:10.472Z,59.80
2019-02-02T03:15:41.732Z,60.75
2019-02-02T03:16:13.043Z,62.15
2019-02-02T03:16:44.262Z,62.80
2019-02-02T03:17:15.488Z,62.93
2019-02-02T03:17:48.214Z,62.82
2019-02-02T03:18:19.559Z,62.40
2019-02-02T03:18:51.837Z,61.91
2019-02-02T03:19:22.990Z,61.30
2019-02-02T03:19:54.184Z,60.64
2019-02-02T03:20:25.350Z,59.80
2019-02-02T03:20:56.612Z,59.32
2019-02-02T03:21:27.764Z,58.73
2019-02-02T03:21:59.217Z,58.28
2019-02-02T03:22:30.373Z,57.81
2019-02-02T03:23:01.567Z,57.37
2019-02-02T03:23:32.737Z,56.89
2019-02-02T03:24:04.059Z,56.49
2019-02-02T03:24:35.321Z,56.23
2019-02-02T03:25:16.148Z,55.80
2019-02-02T03:25:47.381Z,55.76
2019-02-02T03:26:18.631Z,55.43
2019-02-02T03:26:49.873Z,55.18
2019-02-02T03:27:21.109Z,54.99
2019-02-02T03:27:52.341Z,54.80
2019-02-02T03:28:23.572Z,54.57
2019-02-02T03:28:54.782Z,54.08
2019-02-02T03:29:25.937Z,53.62
2019-02-02T03:29:58.136Z,53.53
2019-02-02T03:30:29.360Z,53.72
2019-02-02T03:31:00.576Z,54.20
2019-02-02T03:31:31.775Z,54.83
2019-02-02T03:32:03.046Z,55.51
2019-02-02T03:32:34.202Z,56.29
2019-02-02T03:33:05.418Z,56.85
2019-02-02T03:33:36.601Z,57.59
2019-02-02T03:34:07.826Z,58.49
2019-02-02T03:34:39.060Z,59.32
2019-02-02T03:35:12.796Z,60.25
2019-02-02T03:35:45.008Z,61.58
2019-02-02T03:36:16.204Z,62.45
2019-02-02T03:36:47.535Z,62.68
2019-02-02T03:37:18.673Z,62.58
2019-02-02T03:37:50.479Z,62.36
2019-02-02T03:38:21.633Z,61.97
2019-02-02T03:38:53.879Z,61.37
2019-02-02T03:39:25.103Z,60.66
2019-02-02T03:39:56.325Z,60.18
2019-02-02T03:40:27.499Z,59.58
2019-02-02T03:40:58.888Z,59.04
2019-02-02T03:41:30.050Z,58.46
2019-02-02T03:42:01.272Z,58.00
2019-02-02T03:42:32.836Z,57.62
2019-02-02T03:43:04.027Z,57.26
2019-02-02T03:43:35.179Z,56.90
2019-02-02T03:44:06.369Z,56.47
2019-02-02T03:44:37.518Z,56.20
2019-02-02T03:45:12.805Z,55.86
2019-02-02T03:45:43.958Z,55.65
2019-02-02T03:46:15.168Z,55.33
2019-02-02T03:46:46.321Z,55.00
2019-02-02T03:47:17.529Z,54.82
2019-02-02T03:47:49.166Z,54.57
2019-02-02T03:48:20.375Z,53.96
2019-02-02T03:48:51.553Z,53.67
2019-02-02T03:49:22.743Z,53.50
2019-02-02T03:49:53.937Z,53.82
2019-02-02T03:50:25.188Z,54.25
2019-02-02T03:50:56.375Z,54.93
2019-02-02T03:51:27.554Z,55.67
2019-02-02T03:51:58.738Z,56.48
2019-02-02T03:52:29.935Z,57.25
2019-02-02T03:53:01.146Z,58.05
2019-02-02T03:53:32.432Z,58.76
2019-02-02T03:54:08.796Z,59.51
2019-02-02T03:54:36.695Z,60.52
2019-02-02T03:55:11.987Z,61.73
2019-02-02T03:55:44.162Z,62.51
2019-02-02T03:56:15.356Z,62.83
2019-02-02T03:56:46.575Z,62.66
2019-02-02T03:57:17.786Z,62.31
2019-02-02T03:57:48.978Z,61.72
2019-02-02T03:58:20.189Z,61.03
2019-02-02T03:58:51.908Z,60.48
2019-02-02T03:59:23.059Z,59.85
2019-02-02T03:59:54.245Z,59.32
2019-02-02T04:00:25.404Z,58.85
2019-02-02T04:00:56.623Z,58.48
2019-02-02T04:01:29.961Z,58.06
2019-02-02T04:02:00.874Z,57.65
2019-02-02T04:02:32.085Z,57.20
2019-02-02T04:03:03.280Z,56.79
2019-02-02T04:03:34.429Z,56.41
2019-02-02T04:04:05.624Z,56.03
2019-02-02T04:04:36.858Z,55.70
2019-02-02T04:05:12.282Z,55.48
2019-02-02T04:05:43.477Z,55.15
2019-02-02T04:06:14.748Z,54.84
2019-02-02T04:06:46.099Z,54.67
2019-02-02T04:07:17.310Z,54.13
2019-02-02T04:07:48.480Z,53.61
2019-02-02T04:08:19.687Z,53.52
2019-02-02T04:08:50.841Z,53.71
2019-02-02T04:09:22.045Z,54.02
2019-02-02T04:09:53.206Z,54.59
2019-02-02T04:10:24.423Z,55.19
2019-02-02T04:10:55.601Z,56.03
2019-02-02T04:11:26.877Z,56.85
2019-02-02T04:11:58.032Z,57.65
2019-02-02T04:12:29.373Z,58.30
2019-02-02T04:13:00.544Z,59.10
2019-02-02T04:13:32.762Z,59.87
2019-02-02T04:14:03.875Z,61.16
2019-02-02T04:14:35.088Z,61.89
2019-02-02T04:15:08.739Z,62.16
2019-02-02T04:15:39.948Z,62.11
2019-02-02T04:16:11.224Z,61.78
2019-02-02T04:16:42.513Z,61.31
2019-02-02T04:17:13.798Z,60.74
2019-02-02T04:17:45.083Z,60.13
2019-02-02T04:18:16.308Z,59.66
2019-02-02T04:18:47.529Z,59.12
2019-02-02T04:19:18.727Z,58.63
2019-02-02T04:19:49.870Z,58.11
2019-02-02T04:20:21.972Z,57.50
2019-02-02T04:20:53.130Z,57.05
2019-02-02T04:21:24.354Z,56.59
2019-02-02T04:21:55.502Z,56.15
2019-02-02T04:22:26.718Z,55.72
2019-02-02T04:22:57.891Z,55.33
2019-02-02T04:23:30.100Z,54.98
2019-02-02T04:24:01.764Z,54.66
2019-02-02T04:24:33.031Z,54.20
2019-02-02T04:25:06.102Z,53.70
2019-02-02T04:25:37.307Z,53.65
2019-02-02T04:26:08.465Z,53.90
2019-02-02T04:26:39.655Z,54.24
2019-02-02T04:27:10.857Z,54.75
2019-02-02T04:27:42.058Z,55.57
2019-02-02T04:28:13.224Z,56.37
2019-02-02T04:28:44.428Z,57.09
2019-02-02T04:29:17.765Z,57.87
2019-02-02T04:29:49.665Z,58.62
2019-02-02T04:30:24.031Z,59.43
2019-02-02T04:30:55.459Z,60.31
2019-02-02T04:31:26.631Z,61.63
2019-02-02T04:31:57.828Z,62.42
2019-02-02T04:32:28.980Z,62.70
2019-02-02T04:33:00.204Z,62.48
2019-02-02T04:33:31.356Z,62.03
2019-02-02T04:34:02.854Z,61.51
2019-02-02T04:34:34.030Z,60.88
2019-02-02T04:35:08.354Z,60.25
2019-02-02T04:35:39.606Z,59.60
2019-02-02T04:36:10.867Z,59.14
2019-02-02T04:36:42.048Z,58.69
2019-02-02T04:37:13.263Z,58.24
2019-02-02T04:37:44.425Z,57.74
2019-02-02T04:38:15.668Z,57.37
2019-02-02T04:38:46.885Z,56.98
2019-02-02T04:39:18.125Z,56.53
2019-02-02T04:39:49.319Z,56.18
2019-02-02T04:40:20.502Z,55.84
2019-02-02T04:40:51.685Z,55.57
2019-02-02T04:41:22.863Z,55.30
2019-02-02T04:41:54.025Z,55.11
2019-02-02T04:42:25.207Z,54.96
2019-02-02T04:42:56.376Z,54.68
2019-02-02T04:43:27.660Z,54.27
2019-02-02T04:43:58.826Z,53.73
2019-02-02T04:44:30.009Z,53.59
2019-02-02T04:45:01.175Z,53.83
2019-02-02T04:45:32.430Z,54.22
2019-02-02T04:46:03.641Z,54.71
2019-02-02T04:46:34.890Z,55.45
2019-02-02T04:47:06.081Z,56.22
2019-02-02T04:47:37.262Z,57.10
2019-02-02T04:48:08.452Z,57.71
2019-02-02T04:48:39.626Z,58.55
2019-02-02T04:49:10.804Z,59.37
2019-02-02T04:49:42.012Z,60.24
2019-02-02T04:50:16.980Z,61.27
2019-02-02T04:50:48.181Z,61.75
2019-02-02T04:51:19.339Z,61.93
2019-02-02T04:51:50.550Z,61.84
2019-02-02T04:52:21.704Z,61.53
2019-02-02T04:52:52.886Z,61.01
2019-02-02T04:53:24.049Z,60.43
2019-02-02T04:53:57.953Z,59.71
2019-02-02T04:54:28.307Z,59.21
2019-02-02T04:54:59.513Z,58.66
2019-02-02T04:55:30.679Z,58.29
2019-02-02T04:56:01.893Z,57.64
2019-02-02T04:56:33.039Z,57.14
2019-02-02T04:57:04.335Z,56.62
2019-02-02T04:57:35.481Z,56.11
2019-02-02T04:58:06.683Z,55.66
2019-02-02T04:58:37.845Z,55.31
2019-02-02T04:59:09.044Z,54.96
2019-02-02T04:59:40.220Z,54.69
2019-02-02T05:00:23.726Z,54.11
2019-02-02T05:00:54.868Z,53.51
2019-02-02T05:01:26.076Z,53.39
2019-02-02T05:01:57.235Z,53.57
2019-02-02T05:02:30.392Z,53.91
2019-02-02T05:03:01.490Z,54.50
2019-02-02T05:03:32.970Z,55.14
2019-02-02T05:04:04.192Z,55.92
2019-02-02T05:04:35.400Z,56.69
2019-02-02T05:05:11.180Z,57.49
2019-02-02T05:05:42.361Z,58.12
2019-02-02T05:06:13.566Z,59.02
2019-02-02T05:06:44.755Z,59.92
2019-02-02T05:07:16.005Z,60.93
2019-02-02T05:07:47.131Z,61.99
2019-02-02T05:08:18.324Z,62.60
2019-02-02T05:08:49.480Z,62.87
2019-02-02T05:09:20.687Z,62.58
2019-02-02T05:09:51.868Z,62.37
2019-02-02T05:10:23.499Z,61.95
2019-02-02T05:10:54.735Z,61.31
2019-02-02T05:11:25.988Z,60.64
2019-02-02T05:11:57.224Z,60.02
2019-02-02T05:12:28.454Z,59.46
2019-02-02T05:13:00.003Z,58.98
2019-02-02T05:13:31.239Z,58.40
2019-02-02T05:14:02.603Z,57.89
2019-02-02T05:14:33.869Z,57.42
2019-02-02T05:15:06.466Z,57.05
2019-02-02T05:15:37.615Z,56.73
2019-02-02T05:16:08.837Z,56.32
2019-02-02T05:16:39.978Z,56.09
2019-02-02T05:17:12.210Z,55.78
2019-02-02T05:17:43.354Z,55.48
2019-02-02T05:18:14.562Z,55.12
2019-02-02T05:18:45.714Z,54.91
2019-02-02T05:19:16.984Z,54.79
2019-02-02T05:19:48.117Z,54.27
2019-02-02T05:20:19.530Z,53.74
2019-02-02T05:20:50.685Z,53.55
2019-02-02T05:21:21.897Z,53.66
2019-02-02T05:21:53.034Z,54.09
2019-02-02T05:22:24.239Z,54.72
2019-02-02T05:22:55.401Z,55.42
2019-02-02T05:23:26.644Z,56.17
2019-02-02T05:23:57.803Z,56.68
2019-02-02T05:24:29.222Z,57.50
2019-02-02T05:25:00.399Z,58.28
2019-02-02T05:25:31.619Z,58.94
2019-02-02T05:26:03.056Z,59.75
2019-02-02T05:26:34.325Z,60.72
2019-02-02T05:27:05.607Z,61.87
2019-02-02T05:27:36.850Z,62.55
2019-02-02T05:28:08.125Z,62.94
2019-02-02T05:28:39.354Z,62.73
2019-02-02T05:29:10.577Z,62.40
2019-02-02T05:29:41.962Z,61.87
2019-02-02T05:30:28.847Z,61.26
2019-02-02T05:31:00.003Z,60.79
2019-02-02T05:31:31.203Z,59.93
2019-02-02T05:32:02.429Z,59.33
2019-02-02T05:32:33.636Z,58.88
2019-02-02T05:33:04.788Z,58.42
2019-02-02T05:33:36.002Z,57.93
2019-02-02T05:34:07.211Z,57.56
2019-02-02T05:34:38.490Z,57.20
2019-02-02T05:35:09.791Z,56.85
2019-02-02T05:35:41.035Z,56.51
2019-02-02T05:36:12.280Z,56.19
2019-02-02T05:36:43.577Z,55.78
2019-02-02T05:37:14.821Z,55.47
2019-02-02T05:37:46.036Z,55.12
2019-02-02T05:38:18.186Z,54.98
2019-02-02T05:38:49.387Z,54.71
2019-02-02T05:39:20.555Z,54.13
2019-02-02T05:39:51.765Z,53.63
2019-02-02T05:40:22.959Z,53.51
2019-02-02T05:40:54.267Z,53.78
2019-02-02T05:41:25.626Z,54.31
2019-02-02T05:41:56.818Z,54.73
2019-02-02T05:42:28.017Z,55.33
2019-02-02T05:42:59.337Z,56.17
2019-02-02T05:43:30.539Z,56.96
2019-02-02T05:44:01.726Z,57.87
2019-02-02T05:44:33.007Z,58.63
2019-02-02T05:45:07.696Z,59.37
2019-02-02T05:45:38.878Z,60.36
2019-02-02T05:46:10.057Z,61.79
2019-02-02T05:46:41.242Z,62.36
2019-02-02T05:47:12.474Z,62.46
2019-02-02T05:47:43.667Z,62.24
2019-02-02T05:48:14.859Z,61.82
2019-02-02T05:48:46.044Z,61.23
2019-02-02T05:49:17.225Z,60.62
2019-02-02T05:49:49.626Z,60.06
2019-02-02T05:50:22.219Z,59.51
2019-02-02T05:50:53.376Z,58.93
2019-02-02T05:51:24.631Z,58.48
2019-02-02T05:51:55.782Z,58.08
2019-02-02T05:52:26.979Z,57.60
2019-02-02T05:52:58.155Z,57.13
2019-02-02T05:53:29.389Z,56.62
2019-02-02T05:54:00.550Z,56.25
2019-02-02T05:54:31.741Z,55.82
2019-02-02T05:55:09.420Z,55.45
2019-02-02T05:55:40.625Z,55.25
2019-02-02T05:56:11.779Z,54.88
2019-02-02T05:56:42.967Z,54.63
2019-02-02T05:57:14.124Z,54.07
2019-02-02T05:57:45.334Z,53.53
2019-02-02T05:58:16.487Z,53.35
2019-02-02T05:58:47.699Z,53.39
2019-02-02T05:59:18.915Z,53.69
2019-02-02T05:59:52.813Z,54.24
2019-02-02T06:00:37.662Z,54.70
2019-02-02T06:01:10.772Z,55.12
2019-02-02T06:01:41.961Z,56.28
2019-02-02T06:02:13.140Z,57.10
2019-02-02T06:02:44.329Z,57.93
2019-02-02T06:03:15.495Z,58.65
2019-02-02T06:03:46.677Z,59.30
2019-02-02T06:04:17.936Z,60.16
2019-02-02T06:04:49.124Z,61.34
2019-02-02T06:05:20.305Z,62.10
2019-02-02T06:05:51.532Z,62.43
2019-02-02T06:06:22.756Z,62.18
2019-02-02T06:06:53.940Z,61.66
2019-02-02T06:07:25.096Z,61.13
2019-02-02T06:07:56.260Z,60.50
2019-02-02T06:08:27.414Z,59.85
2019-02-02T06:08:58.597Z,59.29
2019-02-02T06:09:29.740Z,58.74
2019-02-02T06:10:00.895Z,58.18
2019-02-02T06:10:32.337Z,57.69
2019-02-02T06:11:03.707Z,57.19
2019-02-02T06:11:34.865Z,56.72
2019-02-02T06:12:06.075Z,56.28
2019-02-02T06:12:37.225Z,55.85
2019-02-02T06:13:08.441Z,55.40
2019-02-02T06:13:39.597Z,55.03
2019-02-02T06:14:10.811Z,54.64
2019-02-02T06:14:42.066Z,54.13
2019-02-02T06:15:13.277Z,53.65
2019-02-02T06:15:44.486Z,53.55
2019-02-02T06:16:15.670Z,53.72
2019-02-02T06:16:46.856Z,54.08
2019-02-02T06:17:18.131Z,54.75
2019-02-02T06:17:49.363Z,55.43
2019-02-02T06:18:20.630Z,56.18
2019-02-02T06:18:51.880Z,57.00
2019-02-02T06:19:23.086Z,57.71
2019-02-02T06:19:54.342Z,58.47
2019-02-02T06:20:25.571Z,59.13
2019-02-02T06:20:56.775Z,60.00
2019-02-02T06:21:27.938Z,61.07
2019-02-02T06:21:59.350Z,61.84
2019-02-02T06:22:30.486Z,62.09
2019-02-02T06:23:01.684Z,61.94
2019-02-02T06:23:32.833Z,61.61
2019-02-02T06:24:04.042Z,61.12
2019-02-02T06:24:35.204Z,60.45
2019-02-02T06:25:10.121Z,59.77
2019-02-02T06:25:41.276Z,59.12
2019-02-02T06:26:12.487Z,58.39
2019-02-02T06:26:43.660Z,57.81
2019-02-02T06:27:14.848Z,57.24
2019-02-02T06:27:46.015Z,56.72
2019-02-02T06:28:17.225Z,56.30
2019-02-02T06:28:48.375Z,55.99
2019-02-02T06:29:19.607Z,55.65
2019-02-02T06:29:50.765Z,55.25
2019-02-02T06:30:24.076Z,54.95
2019-02-02T06:30:55.239Z,54.66
2019-02-02T06:31:26.421Z,53.98
2019-02-02T06:31:57.583Z,53.41
2019-02-02T06:32:28.783Z,53.19
2019-02-02T06:32:59.952Z,53.28
2019-02-02T06:33:31.147Z,53.68
2019-02-02T06:34:02.467Z,54.12
2019-02-02T06:34:33.780Z,54.70
2019-02-02T06:35:08.884Z,55.40
2019-02-02T06:35:40.143Z,56.10
2019-02-02T06:36:11.310Z,56.88
2019-02-02T06:36:42.562Z,57.65
2019-02-02T06:37:13.747Z,58.42
2019-02-02T06:37:44.984Z,59.20
2019-02-02T06:38:16.130Z,60.13
2019-02-02T06:38:47.344Z,61.29
2019-02-02T06:39:18.506Z,61.99
2019-02-02T06:39:49.726Z,62.06
2019-02-02T06:40:20.928Z,61.94
2019-02-02T06:40:52.136Z,61.63
2019-02-02T06:41:23.318Z,61.06
2019-02-02T06:41:54.499Z,60.40
2019-02-02T06:42:25.773Z,59.89
2019-02-02T06:42:56.982Z,59.38
2019-02-02T06:43:30.213Z,58.72
2019-02-02T06:44:01.299Z,58.20
2019-02-02T06:44:32.495Z,57.61
2019-02-02T06:45:11.974Z,57.06
2019-02-02T06:45:43.175Z,56.61
2019-02-02T06:46:14.394Z,55.98
2019-02-02T06:46:45.553Z,55.52